UAL984 KSYR-KDCA
Flight info
| Callsign | UAL984 |
|---|---|
| Flight time | 0h 41m |
| Altitude | 32000 |
| Route | SYR PTAKI STUBN PSB SKILS5 |
| Aircraft | B738/M-SDE2E3FGHIRWXY/LB1 |
Departure
| Time | 2026-04-22 22:16 |
|---|---|
| Airport | Syracuse Hancock International Airport (KSYR) |
Arrival
| Time | 2026-04-22 22:57 |
|---|---|
| Airport | Ronald Reagan Washington National Airport (KDCA) |
| Time | Latitude | Longitude | Altitude | Speed | Heading |
|---|---|---|---|---|---|
| 2026-04-22 21:56 | 43.11452 | -76.10962 | 419 ft | 0 kts | 357° |
| 2026-04-22 22:06 | 43.11442 | -76.10961 | 420 ft | 2 kts | 353° |
| 2026-04-22 22:06 | 43.11427 | -76.10959 | 419 ft | 2 kts | 355° |
| 2026-04-22 22:07 | 43.11412 | -76.10957 | 419 ft | 1 kts | 354° |
| 2026-04-22 22:07 | 43.11406 | -76.10957 | 419 ft | 0 kts | 28° |
| 2026-04-22 22:07 | 43.11402 | -76.10962 | 419 ft | 0 kts | 80° |
| 2026-04-22 22:07 | 43.11402 | -76.10969 | 419 ft | 1 kts | 91° |
| 2026-04-22 22:08 | 43.11402 | -76.10973 | 419 ft | 0 kts | 89° |
| 2026-04-22 22:09 | 43.11402 | -76.10970 | 419 ft | 1 kts | 89° |
| 2026-04-22 22:10 | 43.11401 | -76.10930 | 419 ft | 5 kts | 93° |
| 2026-04-22 22:10 | 43.11400 | -76.10891 | 419 ft | 7 kts | 90° |
| 2026-04-22 22:10 | 43.11402 | -76.10774 | 419 ft | 10 kts | 87° |
| 2026-04-22 22:10 | 43.11407 | -76.10669 | 419 ft | 11 kts | 86° |
| 2026-04-22 22:11 | 43.11411 | -76.10547 | 417 ft | 13 kts | 89° |
| 2026-04-22 22:11 | 43.11359 | -76.10442 | 417 ft | 14 kts | 134° |
| 2026-04-22 22:11 | 43.11283 | -76.10334 | 415 ft | 16 kts | 134° |
| 2026-04-22 22:11 | 43.11198 | -76.10215 | 413 ft | 18 kts | 135° |
| 2026-04-22 22:12 | 43.11109 | -76.10087 | 411 ft | 16 kts | 133° |
| 2026-04-22 22:12 | 43.11039 | -76.09979 | 409 ft | 12 kts | 116° |
| 2026-04-22 22:12 | 43.11035 | -76.09907 | 408 ft | 11 kts | 91° |
| 2026-04-22 22:12 | 43.11039 | -76.09742 | 407 ft | 13 kts | 88° |
| 2026-04-22 22:13 | 43.11043 | -76.09605 | 405 ft | 15 kts | 88° |
| 2026-04-22 22:13 | 43.11048 | -76.09441 | 403 ft | 18 kts | 87° |
| 2026-04-22 22:13 | 43.11051 | -76.09322 | 403 ft | 8 kts | 97° |
| 2026-04-22 22:13 | 43.11041 | -76.09291 | 402 ft | 0 kts | 130° |
| 2026-04-22 22:14 | 43.11040 | -76.09290 | 402 ft | 1 kts | 134° |
| 2026-04-22 22:14 | 43.11005 | -76.09274 | 402 ft | 4 kts | 186° |
| 2026-04-22 22:14 | 43.10965 | -76.09277 | 401 ft | 7 kts | 183° |
| 2026-04-22 22:14 | 43.10931 | -76.09312 | 401 ft | 6 kts | 256° |
| 2026-04-22 22:15 | 43.10925 | -76.09403 | 402 ft | 10 kts | 266° |
| 2026-04-22 22:15 | 43.10920 | -76.09576 | 405 ft | 46 kts | 268° |
| 2026-04-22 22:15 | 43.10896 | -76.10402 | 411 ft | 124 kts | 267° |
| 2026-04-22 22:15 | 43.10851 | -76.11848 | 598 ft | 171 kts | 267° |
| 2026-04-22 22:16 | 43.10783 | -76.13537 | 1319 ft | 188 kts | 268° |
| 2026-04-22 22:16 | 43.10717 | -76.15377 | 2075 ft | 206 kts | 268° |
| 2026-04-22 22:16 | 43.10639 | -76.17374 | 2794 ft | 217 kts | 268° |
| 2026-04-22 22:16 | 43.10368 | -76.19459 | 3449 ft | 234 kts | 246° |
| 2026-04-22 22:17 | 43.09319 | -76.21216 | 4120 ft | 251 kts | 223° |
| 2026-04-22 22:17 | 43.07882 | -76.22661 | 4772 ft | 267 kts | 217° |
| 2026-04-22 22:17 | 43.06298 | -76.24030 | 5680 ft | 271 kts | 216° |
| 2026-04-22 22:17 | 43.04702 | -76.25382 | 6562 ft | 275 kts | 217° |
| 2026-04-22 22:18 | 43.03094 | -76.26771 | 7466 ft | 277 kts | 218° |
| 2026-04-22 22:18 | 43.01474 | -76.28197 | 8316 ft | 281 kts | 218° |
| 2026-04-22 22:18 | 42.99835 | -76.29643 | 9147 ft | 286 kts | 218° |
| 2026-04-22 22:18 | 42.98163 | -76.31117 | 9993 ft | 289 kts | 219° |
| 2026-04-22 22:19 | 42.96439 | -76.32639 | 10605 ft | 301 kts | 219° |
| 2026-04-22 22:19 | 42.94663 | -76.34212 | 11128 ft | 316 kts | 219° |
| 2026-04-22 22:19 | 42.92766 | -76.35889 | 11614 ft | 333 kts | 219° |
| 2026-04-22 22:19 | 42.90786 | -76.37636 | 12108 ft | 349 kts | 219° |
| 2026-04-22 22:20 | 42.88718 | -76.39455 | 12502 ft | 364 kts | 219° |
| 2026-04-22 22:20 | 42.86527 | -76.41388 | 12863 ft | 378 kts | 219° |
| 2026-04-22 22:20 | 42.84303 | -76.43343 | 13533 ft | 385 kts | 219° |
| 2026-04-22 22:20 | 42.82049 | -76.45304 | 14321 ft | 389 kts | 219° |
| 2026-04-22 22:21 | 42.79769 | -76.47290 | 15089 ft | 391 kts | 219° |
| 2026-04-22 22:21 | 42.77470 | -76.49288 | 15620 ft | 397 kts | 219° |
| 2026-04-22 22:21 | 42.75129 | -76.51324 | 16314 ft | 400 kts | 219° |
| 2026-04-22 22:21 | 42.72806 | -76.53344 | 17110 ft | 403 kts | 220° |
| 2026-04-22 22:22 | 42.70409 | -76.55431 | 17653 ft | 411 kts | 219° |
| 2026-04-22 22:22 | 42.68008 | -76.57519 | 18345 ft | 413 kts | 219° |
| 2026-04-22 22:22 | 42.65590 | -76.59618 | 19001 ft | 417 kts | 220° |
| 2026-04-22 22:22 | 42.63117 | -76.61709 | 19680 ft | 421 kts | 218° |
| 2026-04-22 22:23 | 42.60592 | -76.63712 | 20246 ft | 428 kts | 217° |
| 2026-04-22 22:23 | 42.57968 | -76.65718 | 20805 ft | 434 kts | 216° |
| 2026-04-22 22:23 | 42.55340 | -76.67696 | 21376 ft | 440 kts | 216° |
| 2026-04-22 22:23 | 42.52640 | -76.69726 | 21918 ft | 446 kts | 216° |
| 2026-04-22 22:24 | 42.49934 | -76.71760 | 22622 ft | 447 kts | 216° |
| 2026-04-22 22:24 | 42.47212 | -76.73815 | 23145 ft | 452 kts | 216° |
| 2026-04-22 22:24 | 42.44463 | -76.75899 | 23677 ft | 458 kts | 215° |
| 2026-04-22 22:24 | 42.41659 | -76.78030 | 24199 ft | 462 kts | 216° |
| 2026-04-22 22:25 | 42.38860 | -76.80157 | 24727 ft | 466 kts | 216° |
| 2026-04-22 22:25 | 42.36022 | -76.82312 | 25241 ft | 470 kts | 216° |
| 2026-04-22 22:25 | 42.33166 | -76.84479 | 25707 ft | 475 kts | 216° |
| 2026-04-22 22:25 | 42.30246 | -76.86695 | 26178 ft | 479 kts | 216° |
| 2026-04-22 22:26 | 42.27335 | -76.88902 | 26633 ft | 484 kts | 216° |
| 2026-04-22 22:26 | 42.24385 | -76.91139 | 27179 ft | 485 kts | 216° |
| 2026-04-22 22:26 | 42.21471 | -76.93340 | 27827 ft | 484 kts | 216° |
| 2026-04-22 22:26 | 42.18546 | -76.95546 | 28471 ft | 483 kts | 216° |
| 2026-04-22 22:27 | 41.97626 | -77.11307 | 31645 ft | 484 kts | 218° |
| 2026-04-22 22:27 | 41.94731 | -77.13686 | 31927 ft | 484 kts | 221° |
| 2026-04-22 22:27 | 41.91924 | -77.16171 | 31964 ft | 483 kts | 222° |
| 2026-04-22 22:28 | 41.24476 | -77.74249 | 32066 ft | 478 kts | 217° |
| 2026-04-22 22:28 | 41.18568 | -77.78451 | 31994 ft | 482 kts | 214° |
| 2026-04-22 22:29 | 41.13611 | -77.81954 | 31990 ft | 483 kts | 216° |
| 2026-04-22 22:29 | 41.06843 | -77.87057 | 31984 ft | 479 kts | 218° |
| 2026-04-22 22:30 | 40.90166 | -77.98282 | 31974 ft | 501 kts | 187° |
| 2026-04-22 22:30 | 40.86681 | -77.97873 | 31989 ft | 512 kts | 167° |
| 2026-04-22 22:30 | 40.83374 | -77.95991 | 31983 ft | 515 kts | 146° |
| 2026-04-22 22:30 | 40.80713 | -77.92889 | 31986 ft | 508 kts | 126° |
| 2026-04-22 22:31 | 40.79292 | -77.90426 | 31986 ft | 507 kts | 121° |
| 2026-04-22 22:31 | 40.74512 | -77.81704 | 31977 ft | 507 kts | 125° |
| 2026-04-22 22:32 | 40.69591 | -77.74965 | 31967 ft | 511 kts | 135° |
| 2026-04-22 22:32 | 40.64224 | -77.68884 | 31965 ft | 509 kts | 138° |
| 2026-04-22 22:33 | 40.53723 | -77.57384 | 31960 ft | 508 kts | 137° |
| 2026-04-22 22:33 | 40.31086 | -77.32201 | 31981 ft | 508 kts | 136° |
| 2026-04-22 22:33 | 40.28461 | -77.29112 | 31833 ft | 503 kts | 135° |
| 2026-04-22 22:34 | 40.25861 | -77.26043 | 31276 ft | 501 kts | 135° |
| 2026-04-22 22:34 | 40.23290 | -77.23030 | 30590 ft | 501 kts | 136° |
| 2026-04-22 22:34 | 40.20670 | -77.19994 | 29910 ft | 502 kts | 137° |
| 2026-04-22 22:34 | 40.18080 | -77.17028 | 29259 ft | 502 kts | 136° |
| 2026-04-22 22:35 | 40.15481 | -77.14075 | 28540 ft | 494 kts | 137° |
| 2026-04-22 22:35 | 40.12859 | -77.11112 | 27777 ft | 496 kts | 138° |
| 2026-04-22 22:35 | 40.10257 | -77.08189 | 27025 ft | 502 kts | 138° |
| 2026-04-22 22:35 | 40.07597 | -77.05207 | 26271 ft | 501 kts | 138° |
| 2026-04-22 22:36 | 40.04955 | -77.02245 | 25520 ft | 501 kts | 138° |
| 2026-04-22 22:36 | 40.02354 | -76.99332 | 24752 ft | 489 kts | 139° |
| 2026-04-22 22:36 | 39.99799 | -76.96473 | 23976 ft | 475 kts | 139° |
| 2026-04-22 22:36 | 39.97313 | -76.93694 | 23262 ft | 460 kts | 139° |
| 2026-04-22 22:37 | 39.94938 | -76.91043 | 22635 ft | 446 kts | 139° |
| 2026-04-22 22:37 | 39.92617 | -76.88457 | 22039 ft | 432 kts | 139° |
| 2026-04-22 22:37 | 39.90353 | -76.85936 | 21489 ft | 426 kts | 139° |
| 2026-04-22 22:37 | 39.88137 | -76.83469 | 20916 ft | 424 kts | 139° |
| 2026-04-22 22:38 | 39.85906 | -76.80990 | 20328 ft | 422 kts | 139° |
| 2026-04-22 22:38 | 39.83684 | -76.78522 | 19746 ft | 420 kts | 139° |
| 2026-04-22 22:38 | 39.81485 | -76.76079 | 19174 ft | 418 kts | 139° |
| 2026-04-22 22:38 | 39.79267 | -76.73620 | 18638 ft | 416 kts | 139° |
| 2026-04-22 22:39 | 39.77100 | -76.71219 | 18080 ft | 413 kts | 139° |
| 2026-04-22 22:39 | 39.74905 | -76.68787 | 17549 ft | 412 kts | 139° |
| 2026-04-22 22:39 | 39.72731 | -76.66379 | 16949 ft | 411 kts | 139° |
| 2026-04-22 22:39 | 39.70509 | -76.64047 | 16348 ft | 409 kts | 144° |
| 2026-04-22 22:40 | 39.68101 | -76.62209 | 15777 ft | 405 kts | 159° |
| 2026-04-22 22:40 | 39.65401 | -76.61443 | 15203 ft | 388 kts | 181° |
| 2026-04-22 22:40 | 39.62794 | -76.61532 | 14660 ft | 372 kts | 188° |
| 2026-04-22 22:40 | 39.60244 | -76.61855 | 14109 ft | 359 kts | 189° |
| 2026-04-22 22:41 | 39.57792 | -76.62218 | 13577 ft | 357 kts | 190° |
| 2026-04-22 22:41 | 39.55299 | -76.62561 | 13060 ft | 357 kts | 189° |
| 2026-04-22 22:41 | 39.52839 | -76.62856 | 12476 ft | 356 kts | 188° |
| 2026-04-22 22:41 | 39.50385 | -76.63111 | 12108 ft | 353 kts | 187° |
| 2026-04-22 22:42 | 39.47955 | -76.63341 | 12054 ft | 352 kts | 187° |
| 2026-04-22 22:42 | 39.45492 | -76.63569 | 12013 ft | 358 kts | 187° |
| 2026-04-22 22:42 | 39.42973 | -76.63798 | 12000 ft | 359 kts | 187° |
| 2026-04-22 22:42 | 39.40499 | -76.64019 | 12011 ft | 358 kts | 187° |
| 2026-04-22 22:43 | 39.38014 | -76.64242 | 12021 ft | 358 kts | 187° |
| 2026-04-22 22:43 | 39.35531 | -76.64465 | 12023 ft | 358 kts | 187° |
| 2026-04-22 22:43 | 39.33044 | -76.64689 | 12023 ft | 359 kts | 187° |
| 2026-04-22 22:43 | 39.30547 | -76.64912 | 11835 ft | 353 kts | 187° |
| 2026-04-22 22:44 | 39.28121 | -76.65129 | 11318 ft | 353 kts | 187° |
| 2026-04-22 22:44 | 39.25658 | -76.65352 | 10755 ft | 353 kts | 187° |
| 2026-04-22 22:44 | 39.23228 | -76.65571 | 10438 ft | 345 kts | 187° |
| 2026-04-22 22:44 | 39.20868 | -76.65780 | 10303 ft | 332 kts | 187° |
| 2026-04-22 22:45 | 39.18622 | -76.66060 | 10184 ft | 318 kts | 193° |
| 2026-04-22 22:45 | 39.16565 | -76.66821 | 10010 ft | 301 kts | 212° |
| 2026-04-22 22:45 | 39.14941 | -76.68336 | 10013 ft | 279 kts | 227° |
| 2026-04-22 22:45 | 39.13564 | -76.70065 | 10013 ft | 278 kts | 230° |
| 2026-04-22 22:46 | 39.12186 | -76.71845 | 10008 ft | 278 kts | 230° |
| 2026-04-22 22:46 | 39.10807 | -76.73559 | 10013 ft | 278 kts | 228° |
| 2026-04-22 22:46 | 39.09386 | -76.75271 | 10008 ft | 280 kts | 228° |
| 2026-04-22 22:46 | 39.07938 | -76.76988 | 10011 ft | 280 kts | 227° |
| 2026-04-22 22:47 | 39.06509 | -76.78675 | 9996 ft | 280 kts | 228° |
| 2026-04-22 22:47 | 39.05076 | -76.80366 | 9954 ft | 280 kts | 227° |
| 2026-04-22 22:47 | 39.03635 | -76.82067 | 9921 ft | 280 kts | 227° |
| 2026-04-22 22:47 | 39.02197 | -76.83765 | 9871 ft | 281 kts | 227° |
| 2026-04-22 22:48 | 39.00755 | -76.85470 | 9511 ft | 284 kts | 227° |
| 2026-04-22 22:48 | 38.99284 | -76.87209 | 9059 ft | 286 kts | 229° |
| 2026-04-22 22:48 | 38.97969 | -76.89069 | 8618 ft | 282 kts | 240° |
| 2026-04-22 22:48 | 38.97215 | -76.91374 | 8163 ft | 273 kts | 266° |
| 2026-04-22 22:49 | 38.97200 | -76.93782 | 7735 ft | 270 kts | 276° |
| 2026-04-22 22:49 | 38.97341 | -76.96157 | 7296 ft | 271 kts | 277° |
| 2026-04-22 22:49 | 38.97475 | -76.98580 | 6855 ft | 272 kts | 276° |
| 2026-04-22 22:49 | 38.97632 | -77.00976 | 6500 ft | 264 kts | 281° |
| 2026-04-22 22:50 | 38.98143 | -77.03131 | 6311 ft | 250 kts | 300° |
| 2026-04-22 22:50 | 38.99261 | -77.04838 | 6084 ft | 246 kts | 317° |
| 2026-04-22 22:50 | 39.00528 | -77.06277 | 6013 ft | 245 kts | 317° |
| 2026-04-22 22:50 | 39.01800 | -77.07755 | 5923 ft | 248 kts | 316° |
| 2026-04-22 22:51 | 39.03064 | -77.09270 | 5629 ft | 247 kts | 316° |
| 2026-04-22 22:51 | 39.04294 | -77.10777 | 5339 ft | 244 kts | 315° |
| 2026-04-22 22:51 | 39.05495 | -77.12303 | 5044 ft | 244 kts | 310° |
| 2026-04-22 22:51 | 39.06300 | -77.14197 | 4751 ft | 243 kts | 284° |
| 2026-04-22 22:52 | 39.06260 | -77.16365 | 4459 ft | 247 kts | 257° |
| 2026-04-22 22:52 | 39.05663 | -77.18424 | 4175 ft | 245 kts | 250° |
| 2026-04-22 22:52 | 39.04966 | -77.20416 | 4010 ft | 238 kts | 245° |
| 2026-04-22 22:52 | 39.03868 | -77.21932 | 3990 ft | 232 kts | 210° |
| 2026-04-22 22:53 | 39.02289 | -77.22260 | 3865 ft | 233 kts | 170° |
| 2026-04-22 22:53 | 39.00880 | -77.21355 | 3700 ft | 228 kts | 141° |
| 2026-04-22 22:53 | 38.99760 | -77.19933 | 3512 ft | 223 kts | 132° |
| 2026-04-22 22:53 | 38.98786 | -77.18536 | 3315 ft | 220 kts | 132° |
| 2026-04-22 22:54 | 38.97769 | -77.17090 | 3107 ft | 216 kts | 133° |
| 2026-04-22 22:54 | 38.96762 | -77.15691 | 2901 ft | 213 kts | 135° |
| 2026-04-22 22:54 | 38.95696 | -77.14371 | 2709 ft | 208 kts | 139° |
| 2026-04-22 22:54 | 38.94654 | -77.13222 | 2561 ft | 192 kts | 141° |
| 2026-04-22 22:55 | 38.93642 | -77.12133 | 2416 ft | 191 kts | 141° |
| 2026-04-22 22:55 | 38.92627 | -77.11025 | 2372 ft | 192 kts | 141° |
| 2026-04-22 22:55 | 38.90693 | -77.08733 | 1737 ft | 190 kts | 130° |
| 2026-04-22 22:56 | 38.90133 | -77.07293 | 1400 ft | 181 kts | 111° |
| 2026-04-22 22:56 | 38.89497 | -77.05996 | 1095 ft | 169 kts | 142° |
| 2026-04-22 22:56 | 38.88631 | -77.05083 | 817 ft | 158 kts | 141° |
| 2026-04-22 22:56 | 38.88108 | -77.04487 | 679 ft | 153 kts | 142° |
| 2026-04-22 22:57 | 38.86875 | -77.03928 | 309 ft | 142 kts | 175° |
| 2026-04-22 22:57 | 38.85925 | -77.03854 | 29 ft | 132 kts | 175° |
| 2026-04-22 22:57 | 38.85212 | -77.03785 | 23 ft | 63 kts | 175° |
| 2026-04-22 22:57 | 38.84869 | -77.03748 | 21 ft | 35 kts | 174° |
| 2026-04-22 22:58 | 38.84689 | -77.03790 | 22 ft | 22 kts | 207° |
| 2026-04-22 22:58 | 38.84515 | -77.03899 | 20 ft | 28 kts | 204° |
| 2026-04-22 22:58 | 38.84387 | -77.03988 | 20 ft | 18 kts | 230° |
| 2026-04-22 22:58 | 38.84372 | -77.04067 | 19 ft | 0 kts | 270° |
| 2026-04-22 22:59 | 38.84375 | -77.04086 | 19 ft | 3 kts | 300° |
| 2026-04-22 22:59 | 38.84422 | -77.04117 | 20 ft | 7 kts | 353° |
| 2026-04-22 22:59 | 38.84492 | -77.04134 | 22 ft | 11 kts | 353° |
| 2026-04-22 22:59 | 38.84565 | -77.04140 | 23 ft | 7 kts | 17° |
| 2026-04-22 23:00 | 38.84605 | -77.04074 | 23 ft | 12 kts | 57° |
| 2026-04-22 23:00 | 38.84704 | -77.03996 | 23 ft | 19 kts | 24° |
| 2026-04-22 23:00 | 38.84824 | -77.03955 | 24 ft | 16 kts | 2° |
| 2026-04-22 23:00 | 38.84929 | -77.03955 | 24 ft | 8 kts | 355° |
| 2026-04-22 23:01 | 38.84966 | -77.03959 | 24 ft | 5 kts | 355° |
| 2026-04-22 23:01 | 38.85010 | -77.03964 | 24 ft | 6 kts | 355° |
| 2026-04-22 23:01 | 38.85062 | -77.03969 | 24 ft | 7 kts | 355° |
| 2026-04-22 23:01 | 38.85122 | -77.03975 | 24 ft | 9 kts | 355° |
| 2026-04-22 23:02 | 38.85178 | -77.03984 | 25 ft | 2 kts | 340° |
| 2026-04-22 23:02 | 38.85192 | -77.04016 | 25 ft | 8 kts | 296° |